Terminal Aerodrome Forecast
Issued by NWS

Home | Current Version | Previous Version | Text Only | Print | Product List | Glossary On
Versions: 1 2 3 4 5 6 7 8 9 10 11 12 13 14 15 16 17 18 19 20 21 22 23 24
000
FTUS41 KRLX 302300
TAFCKB
TAF
KCKB 302339Z 3100/3124 25005KT P6SM VCSH BKN050
      TEMPO 3100/3102 5SM -SHRA OVC040
     FM310200 00000KT P6SM BKN050
     FM310400 00000KT 6SM BR SCT050
     FM310500 00000KT 4SM BR SCT040
     FM311300 00000KT 6SM BR SCT035
     FM311400 23004KT P6SM SCT035=

USA.gov is the U.S. government's official web portal to all federal, state and local government web resources and services.